Terminal Aerodrome Forecast
Issued by NWS Indianapolis, IN

Home | Current Version | Previous Version | Text Only | Print | Product List | Glossary On
Versions: 1 2 3 4 5 6 7 8 9 10 11 12 13 14 15 16 17 18 19 20 21 22 23 24 25
311
FTUS43 KIND 291120
TAFIND
TAF
KIND 291120Z 2912/3018 20010G20KT P6SM FEW045 SCT200 WS020/23040KT
     FM291300 21012G24KT P6SM FEW045 SCT200
     FM291500 22015G25KT P6SM SCT045
     FM292300 21013KT P6SM BKN200
     FM301200 20007KT P6SM BKN008=

USA.gov is the U.S. government's official web portal to all federal, state and local government web resources and services.